Bledsoe, Texas
Current Conditions -  °F | °C
As of 4:39 AM on Wednesday 22 Oct 2014 (Local Time) from KCVS Reporting Station
Scattered Clouds Scattered Clouds  
Wind Chill: 57°   Ceiling: Unl
Heat Index: 57°   Visibility: 10mi
Dew Point: 55°   Wind: 6mph
Humidity: 94%   Direction: 220°SW
Pressure: 30.11"   Gusts: NA
Location:  33.62°N, 103.02°W
Report Text: KCVS 220939Z AUTO 22005KT 10SM SCT029 14/13 A3011 RMK AO2 $
Loading
Personal Weather Stations






























Interactive Weather Map
Tropical Storm Tracking
New forecast layout! Learn more

10-Day Weather Forecast

Advertisements
Track Severe Weather on mobile